Dennis Port, MA (02639)

10:16 AM EDT on October 15, 2019 (GMT -0400)
Middle Street | | Change Station

Elev 49 ft 41.67 °N, 70.15 °W | Updated 14 seconds ago

Clear
Clear
55.6 °F
Feels Like 55.6 °F
N
1.8
Wind Variable Wind from West
Gusts 2.2 mph

Today
High -- | Low -- °F
--% Chance of Precip.
Yesterday
High -- | Low -- °F
Precip. -- in
Pressure 30.12 in
Visibility 10.0 miles
Clouds Clear
Dew Point 46 °F
Humidity 71%
Rainfall 0.01 in
Snow Depth Not available.
6:52 AM 5:59 PM
Full, 97% visible
METAR KHYA 151356Z 33011KT 10SM CLR 13/05 A3011 RMK AO2 SLP197 T01280050
Pressure 30.12 in
Visibility 10.0 miles
Clouds Clear
Dew Point 46 °F
Humidity 71%
Rainfall 0.01 in
Snow Depth Not available.
6:52 AM 5:59 PM
Full, 97% visible
METAR KHYA 151356Z 33011KT 10SM CLR 13/05 A3011 RMK AO2 SLP197 T01280050

Get Severe Weather Alerts

Thanks for signing up!

Be on the lookout for a verification email in your inbox.

You'll start receiving the daily forecast at 6 AM.

×

10-Day Weather Forecast

Almanac

Astronomy

Oct. 15, 2019 Rise Set
Actual Time
Civil Twilight
Nautical Twilight
Astronomical Twilight
Moon
Length of Visible Light
Length of Day
Tomorrow will be .
, % of the Moon is Illuminated

Today's Extremes

State Highs State Lows

Community

WunderPhotos

Category 6

Welcome to Category 6. This is the collective home for Weather Underground's featured writeups by Dr. Jeff Masters (right), Bob Henson (left), Chris Burt, and other regular contributors.

Nearby

Air Quality

  Air Quality AQ Index Pollutant
Not available.

Snow Depth

Station Depth Elevation

Earthquake Activity

City Distance Mag. Time & Date
Minimum magnitude displayed is 2.5.

Coastal Water Temperatures

Place Temperature

Stations

Nearby Weather Stations

Station Location Temp. Windchill Dew Point Humidity Wind Precip. Elev Updated Type
                   

Watches & Warnings

There are currently no watches in effect.